Time;durP1;ratioP1;P1;durP2;ratioP2;P2;SDS_P1;SDS_P2;PMS_P1;PMS_P2;Temp;Humidity;BMP_temperature;BMP_pressure;BME280_temperature;BME280_humidity;BME280_pressure;Samples;Min_cycle;Max_cycle;Signal;HPM_P1;HPM_P2
2021/11/05 00:00:05;;;;;;;6.35;4.25;;;;;;;6.41;100.00;100779.25;6300985;22;20023;-75
2021/11/05 00:02:38;;;;;;;6.72;5.47;;;;;;;6.49;100.00;100764.34;6300827;22;20015;-76
2021/11/05 00:05:05;;;;;;;14.43;5.90;;;;;;;6.55;100.00;100754.69;6302507;22;20584;-76
2021/11/05 00:07:31;;;;;;;4.68;4.32;;;;;;;6.58;100.00;100754.59;6274444;22;20544;-76
2021/11/05 00:09:58;;;;;;;12.85;5.53;;;;;;;6.72;100.00;100746.50;6302261;22;20019;-75
2021/11/05 00:12:23;;;;;;;10.95;3.47;;;;;;;6.72;100.00;100728.31;6300489;22;20071;-74
2021/11/05 00:14:49;;;;;;;10.00;6.65;;;;;;;6.78;100.00;100730.75;6300599;22;20023;-75
2021/11/05 00:17:15;;;;;;;7.32;6.25;;;;;;;6.88;100.00;100731.38;6300437;22;20019;-75
2021/11/05 00:19:42;;;;;;;8.85;6.03;;;;;;;6.88;100.00;100721.84;6275034;22;20102;-75
2021/11/05 00:22:07;;;;;;;0.82;0.82;;;;;;;6.90;100.00;100725.28;6300378;22;20584;-75
2021/11/05 00:24:34;;;;;;;6.65;5.32;;;;;;;6.93;100.00;100725.19;6301942;22;20019;-75
2021/11/05 00:27:00;;;;;;;8.38;5.93;;;;;;;6.95;100.00;100727.75;6274670;22;20513;-75
2021/11/05 00:29:26;;;;;;;7.30;6.35;;;;;;;7.00;100.00;100729.31;6275123;22;20015;-75
2021/11/05 00:31:51;;;;;;;5.00;2.05;;;;;;;7.05;100.00;100704.09;6300495;22;20097;-74
2021/11/05 00:34:18;;;;;;;3.10;2.85;;;;;;;7.07;100.00;100712.69;6275393;22;20019;-74
2021/11/05 00:36:45;;;;;;;18.92;8.35;;;;;;;7.15;100.00;100722.88;6301708;22;20038;-76
2021/11/05 00:39:11;;;;;;;30.98;5.63;;;;;;;7.17;100.00;100724.53;6300464;22;20015;-75
2021/11/05 00:41:37;;;;;;;11.48;5.32;;;;;;;7.17;100.00;100716.75;6273894;22;20370;-76
2021/11/05 00:44:03;;;;;;;10.07;7.07;;;;;;;7.20;100.00;100716.66;6301825;22;20039;-76
2021/11/05 00:46:29;;;;;;;15.02;8.13;;;;;;;7.25;100.00;100707.00;6274779;22;20019;-75
2021/11/05 00:48:57;;;;;;;5.13;4.32;;;;;;;7.27;100.00;100720.78;6274730;22;20015;-75
2021/11/05 00:51:23;;;;;;;4.97;4.20;;;;;;;7.23;100.00;100710.56;6300533;22;20090;-76
2021/11/05 00:53:50;;;;;;;6.47;5.90;;;;;;;7.30;100.00;100725.91;6274517;22;20015;-76
2021/11/05 00:56:16;;;;;;;16.05;7.22;;;;;;;7.36;100.00;100708.47;6274209;22;20026;-76
2021/11/05 00:58:42;;;;;;;9.60;5.90;;;;;;;7.38;100.00;100723.09;6300094;22;20077;-76
2021/11/05 01:01:08;;;;;;;6.00;5.40;;;;;;;7.39;100.00;100711.81;6275326;22;20011;-76
2021/11/05 01:03:35;;;;;;;14.60;6.57;;;;;;;7.40;100.00;100710.06;6301760;22;20026;-76
2021/11/05 01:06:01;;;;;;;7.78;6.15;;;;;;;7.40;100.00;100710.91;6301752;22;20081;-75
2021/11/05 01:08:27;;;;;;;6.97;5.18;;;;;;;7.43;100.00;100710.81;6274597;22;20023;-76
2021/11/05 01:10:54;;;;;;;9.10;6.60;;;;;;;7.46;100.00;100705.53;6300371;22;20037;-75
2021/11/05 01:13:20;;;;;;;7.38;4.88;;;;;;;7.56;100.00;100721.75;6300325;22;20038;-74
2021/11/05 01:15:46;;;;;;;6.68;6.10;;;;;;;7.55;100.00;100718.28;6274209;22;20165;-74
2021/11/05 01:18:12;;;;;;;14.80;5.15;;;;;;;7.57;100.00;100700.03;6274299;22;20019;-74
2021/11/05 01:20:39;;;;;;;4.57;4.22;;;;;;;7.59;100.00;100691.31;6298712;22;20015;-74
2021/11/05 01:23:06;;;;;;;12.25;4.93;;;;;;;7.63;100.00;100681.66;6298333;22;20068;-75
2021/11/05 01:25:33;;;;;;;8.60;6.80;;;;;;;7.66;100.00;100686.78;6298591;22;20023;-73
2021/11/05 01:27:59;;;;;;;14.30;5.57;;;;;;;7.67;100.00;100678.09;6298619;22;20072;-74
2021/11/05 01:30:26;;;;;;;5.15;4.80;;;;;;;7.68;100.00;100664.22;6298985;22;20418;-75
2021/11/05 01:32:52;;;;;;;6.15;4.13;;;;;;;7.66;100.00;100660.78;6300153;22;20012;-75
2021/11/05 01:35:18;;;;;;;6.82;5.22;;;;;;;7.66;100.00;100655.59;6307097;22;20012;-73
2021/11/05 01:37:44;;;;;;;10.13;4.05;;;;;;;7.72;100.00;100647.63;6316390;22;20030;-73
2021/11/05 01:40:11;;;;;;;14.38;8.23;;;;;;;7.70;100.00;100634.69;6313590;22;20012;-74
2021/11/05 01:42:37;;;;;;;13.00;7.50;;;;;;;7.78;100.00;100655.25;6302784;22;20042;-73
2021/11/05 01:45:05;;;;;;;23.95;9.05;;;;;;;7.81;100.00;100647.34;6300194;22;20023;-73
2021/11/05 01:47:31;;;;;;;13.07;5.97;;;;;;;7.82;100.00;100662.03;6300922;22;20022;-76
2021/11/05 01:49:57;;;;;;;23.50;6.65;;;;;;;7.80;100.00;100653.44;6299229;22;20028;-75
2021/11/05 01:52:23;;;;;;;17.60;7.18;;;;;;;7.83;100.00;100664.59;6300956;22;20018;-75
2021/11/05 01:54:50;;;;;;;6.65;5.97;;;;;;;7.81;100.00;100662.94;6302470;22;20022;-75
2021/11/05 01:57:16;;;;;;;10.18;7.32;;;;;;;7.83;100.00;100669.78;6303142;22;20102;-73
2021/11/05 01:59:42;;;;;;;10.30;7.70;;;;;;;7.83;100.00;100671.53;6302195;22;20019;-75
2021/11/05 02:02:08;;;;;;;10.48;7.45;;;;;;;7.86;100.00;100667.09;6300992;22;20019;-73
2021/11/05 02:04:35;;;;;;;16.83;5.53;;;;;;;7.88;100.00;100661.88;6302574;22;20023;-73
2021/11/05 02:07:02;;;;;;;16.48;5.93;;;;;;;7.86;100.00;100642.84;6276579;22;20090;-73
2021/11/05 02:09:28;;;;;;;20.70;7.90;;;;;;;7.88;100.00;100638.47;6303052;22;20030;-73
2021/11/05 02:11:57;;;;;;;17.73;6.38;;;;;;;7.92;100.00;100642.66;6279657;22;20073;-75
2021/11/05 02:14:23;;;;;;;9.65;5.18;;;;;;;7.93;100.00;100628.75;6305198;22;20015;-75
2021/11/05 02:16:51;;;;;;;16.60;8.80;;;;;;;7.96;100.00;100646.84;6304740;22;20019;-76
2021/11/05 02:19:19;;;;;;;3.03;2.83;;;;;;;7.99;100.00;100645.91;6277323;22;20037;-75
2021/11/05 02:21:47;;;;;;;10.32;6.70;;;;;;;8.00;100.00;100648.47;6304461;22;20451;-75
2021/11/05 02:24:14;;;;;;;19.05;7.25;;;;;;;8.03;100.00;100647.50;6304199;22;20015;-74
2021/11/05 02:26:41;;;;;;;8.40;7.70;;;;;;;7.99;100.00;100644.16;6276926;22;20045;-75
2021/11/05 02:29:07;;;;;;;8.02;4.72;;;;;;;8.03;100.00;100643.16;6304484;22;20493;-75
2021/11/05 02:31:34;;;;;;;5.57;4.00;;;;;;;8.03;100.00;100635.38;6304571;22;20102;-75
2021/11/05 02:34:00;;;;;;;4.90;4.50;;;;;;;8.04;100.00;100631.88;6302637;22;20512;-74
2021/11/05 02:36:26;;;;;;;8.63;6.53;;;;;;;8.07;100.00;100626.59;6304496;22;20023;-74
2021/11/05 02:38:53;;;;;;;10.68;6.65;;;;;;;8.11;100.00;100616.94;6301385;22;20033;-75
2021/11/05 02:41:20;;;;;;;3.65;3.45;;;;;;;8.09;100.00;100618.72;6276965;22;20476;-75
2021/11/05 02:43:49;;;;;;;5.18;3.95;;;;;;;8.16;100.00;100613.28;6277177;22;20025;-74
2021/11/05 02:46:15;;;;;;;12.32;5.95;;;;;;;8.14;100.00;100612.50;6302443;22;20019;-75
2021/11/05 02:48:41;;;;;;;5.28;4.72;;;;;;;8.13;100.00;100582.16;6304055;22;20025;-74
2021/11/05 02:51:09;;;;;;;15.73;8.45;;;;;;;8.22;100.00;100584.47;6302524;22;20019;-74
2021/11/05 02:53:36;;;;;;;12.68;9.43;;;;;;;8.24;100.00;100577.47;6277389;22;20015;-73
2021/11/05 02:56:02;;;;;;;21.20;9.02;;;;;;;8.33;100.00;100585.00;6276937;22;20106;-74
2021/11/05 02:58:28;;;;;;;11.27;6.57;;;;;;;8.34;100.00;100563.25;6301419;22;20015;-74
2021/11/05 03:00:56;;;;;;;28.35;7.07;;;;;;;8.32;100.00;100564.22;6301333;22;20065;-73
2021/11/05 03:03:22;;;;;;;9.52;8.57;;;;;;;8.40;100.00;100571.75;6276987;22;20022;-74
2021/11/05 03:05:48;;;;;;;20.02;9.20;;;;;;;8.32;100.00;100544.25;6302399;22;20092;-73
2021/11/05 03:08:15;;;;;;;13.40;5.93;;;;;;;8.51;100.00;100574.84;6302445;22;20078;-74
2021/11/05 03:10:41;;;;;;;6.72;6.03;;;;;;;8.55;100.00;100584.22;6302438;22;20363;-74
2021/11/05 03:13:07;;;;;;;15.82;6.75;;;;;;;8.55;100.00;100566.88;6302553;22;20098;-73
2021/11/05 03:15:33;;;;;;;11.95;6.93;;;;;;;8.59;100.00;100570.22;6302481;22;20371;-72
2021/11/05 03:18:00;;;;;;;12.65;4.85;;;;;;;8.59;100.00;100559.81;6301733;22;20020;-74
2021/11/05 03:20:26;;;;;;;15.35;7.38;;;;;;;8.64;100.00;100550.94;6302443;22;20019;-74
2021/11/05 03:22:52;;;;;;;15.30;8.52;;;;;;;8.68;100.00;100556.88;6302091;22;20020;-75
2021/11/05 03:25:19;;;;;;;5.70;5.25;;;;;;;8.72;100.00;100558.47;6302404;22;20414;-74
2021/11/05 03:27:47;;;;;;;5.75;5.32;;;;;;;8.73;100.00;100560.19;6303300;22;20083;-75
2021/11/05 03:30:14;;;;;;;7.90;7.22;;;;;;;8.74;100.00;100562.72;6302367;22;20015;-74
2021/11/05 03:32:40;;;;;;;33.42;6.53;;;;;;;8.75;100.00;100559.22;6276338;22;20023;-73
2021/11/05 03:35:07;;;;;;;12.35;7.05;;;;;;;8.82;100.00;100555.47;6303962;22;20279;-73
2021/11/05 03:37:33;;;;;;;5.47;5.07;;;;;;;8.84;100.00;100552.81;6251224;22;20022;-74
2021/11/05 03:40:01;;;;;;;9.48;7.20;;;;;;;8.84;100.00;100556.28;6303563;22;20015;-73
2021/11/05 03:42:27;;;;;;;14.40;7.32;;;;;;;8.87;100.00;100558.75;6303123;22;20023;-74
2021/11/05 03:44:53;;;;;;;11.48;7.88;;;;;;;8.87;100.00;100555.28;6276614;22;20019;-73
2021/11/05 03:47:19;;;;;;;8.63;5.55;;;;;;;8.91;100.00;100551.69;6303809;22;20026;-74
2021/11/05 03:49:45;;;;;;;9.43;6.25;;;;;;;8.91;100.00;100533.47;6301456;22;20077;-75
2021/11/05 03:52:11;;;;;;;7.90;6.93;;;;;;;8.95;100.00;100529.84;6303749;22;20398;-74
2021/11/05 03:54:38;;;;;;;11.77;6.07;;;;;;;9.00;100.00;100538.31;6302023;22;20019;-75
2021/11/05 03:57:04;;;;;;;6.35;5.78;;;;;;;9.03;100.00;100538.19;6303312;22;20015;-75
2021/11/05 03:59:30;;;;;;;8.15;7.25;;;;;;;9.06;100.00;100535.50;6303403;22;20458;-73
2021/11/05 04:01:57;;;;;;;22.58;6.32;;;;;;;9.08;100.00;100527.63;6301157;22;20015;-74
2021/11/05 04:04:23;;;;;;;11.85;6.70;;;;;;;9.09;100.00;100516.31;6276314;22;20018;-74
2021/11/05 04:06:49;;;;;;;12.48;6.30;;;;;;;9.14;100.00;100536.06;6301020;22;20026;-74
2021/11/05 04:09:16;;;;;;;9.82;6.72;;;;;;;9.20;100.00;100525.38;6303412;22;20039;-75
2021/11/05 04:11:42;;;;;;;10.10;6.88;;;;;;;9.20;100.00;100530.59;6301902;22;20022;-75
2021/11/05 04:14:08;;;;;;;20.83;7.90;;;;;;;9.24;100.00;100547.81;6301876;22;20026;-74
2021/11/05 04:16:34;;;;;;;5.40;4.75;;;;;;;9.26;100.00;100534.75;6303591;22;20019;-74
2021/11/05 04:19:00;;;;;;;11.60;5.97;;;;;;;9.32;100.00;100504.09;6301705;22;20022;-73
2021/11/05 04:21:26;;;;;;;5.97;5.35;;;;;;;9.33;100.00;100516.19;6250601;22;20019;-74
2021/11/05 04:23:52;;;;;;;8.73;7.85;;;;;;;9.34;100.00;100504.88;6275902;22;20359;-75
2021/11/05 04:26:18;;;;;;;14.25;8.55;;;;;;;9.39;100.00;100504.69;6301512;22;20023;-74
2021/11/05 04:28:44;;;;;;;20.48;8.95;;;;;;;9.46;100.00;100494.88;6302870;22;20478;-76
2021/11/05 04:31:10;;;;;;;7.03;6.32;;;;;;;9.45;100.00;100508.81;6303283;22;20015;-75
2021/11/05 04:33:36;;;;;;;19.15;8.75;;;;;;;9.46;100.00;100497.50;6305367;22;20371;-75
2021/11/05 04:36:03;;;;;;;11.60;6.05;;;;;;;9.46;100.00;100487.06;6301817;22;20352;-74
2021/11/05 04:38:29;;;;;;;5.53;5.03;;;;;;;9.46;100.00;100484.47;6276113;22;20021;-75
2021/11/05 04:40:56;;;;;;;14.63;9.57;;;;;;;9.50;100.00;100486.00;6301451;22;20094;-74
2021/11/05 04:43:22;;;;;;;12.35;6.72;;;;;;;9.48;100.00;100480.03;6303090;22;20084;-74
2021/11/05 04:45:49;;;;;;;13.80;6.88;;;;;;;9.52;100.00;100482.41;6301343;22;20067;-73
2021/11/05 04:48:15;;;;;;;6.43;6.00;;;;;;;9.51;100.00;100490.31;6303012;22;20015;-75
2021/11/05 04:50:42;;;;;;;4.60;3.90;;;;;;;9.45;100.00;100485.34;6301575;22;20094;-73
2021/11/05 04:53:08;;;;;;;11.38;6.47;;;;;;;9.48;100.00;100483.47;6300983;22;20366;-73
2021/11/05 04:55:34;;;;;;;10.18;8.68;;;;;;;9.53;100.00;100475.44;6302656;22;20512;-73
2021/11/05 04:58:00;;;;;;;9.73;7.00;;;;;;;9.49;99.86;100469.50;6275172;22;20023;-72
2021/11/05 05:00:26;;;;;;;12.50;7.00;;;;;;;9.51;99.71;100452.06;6301744;22;20021;-74
2021/11/05 05:02:53;;;;;;;3.50;2.95;;;;;;;9.56;99.44;100459.69;6301500;22;20015;-74
2021/11/05 05:05:20;;;;;;;12.27;6.07;;;;;;;9.58;98.61;100463.09;6303008;22;20015;-75
2021/11/05 05:07:46;;;;;;;15.25;9.23;;;;;;;9.61;98.67;100471.66;6301562;22;20019;-73
2021/11/05 05:10:13;;;;;;;10.65;5.97;;;;;;;9.59;98.63;100470.00;6281935;22;20102;-74
2021/11/05 05:12:39;;;;;;;12.10;9.18;;;;;;;9.59;98.59;100462.16;6263127;22;20019;-75
2021/11/05 05:15:05;;;;;;;11.10;7.20;;;;;;;9.66;97.66;100479.25;6286089;22;20034;-74
2021/11/05 05:17:31;;;;;;;4.68;4.43;;;;;;;9.62;98.15;100475.94;6307058;22;20015;-76
2021/11/05 05:19:57;;;;;;;5.10;4.70;;;;;;;9.59;97.99;100481.25;6304612;22;20030;-74
2021/11/05 05:22:24;;;;;;;7.70;4.43;;;;;;;9.59;98.11;100480.41;6303630;22;20019;-74
2021/11/05 05:24:50;;;;;;;14.15;8.68;;;;;;;9.67;97.81;100473.16;6301190;22;20047;-75
2021/11/05 05:27:16;;;;;;;9.10;7.78;;;;;;;9.64;97.16;100474.13;6303119;22;20030;-75
2021/11/05 05:29:43;;;;;;;5.97;5.35;;;;;;;9.66;97.44;100474.91;6301511;22;20047;-75
2021/11/05 05:32:10;;;;;;;18.17;7.43;;;;;;;9.68;97.12;100464.41;6300994;22;20011;-74
2021/11/05 05:34:36;;;;;;;5.05;4.47;;;;;;;9.70;96.55;100462.59;6275565;22;20378;-75
2021/11/05 05:37:02;;;;;;;6.65;6.05;;;;;;;9.69;96.11;100463.50;6302767;22;20022;-73
2021/11/05 05:39:28;;;;;;;7.00;5.40;;;;;;;9.71;96.30;100459.94;6301278;22;20038;-73
2021/11/05 05:41:54;;;;;;;17.23;7.68;;;;;;;9.67;96.46;100458.34;6303933;22;20015;-72
2021/11/05 05:44:20;;;;;;;22.00;9.35;;;;;;;9.75;95.27;100452.84;6305028;22;20018;-74
2021/11/05 05:46:46;;;;;;;4.72;4.32;;;;;;;9.74;95.47;100457.19;6308410;22;20030;-76
2021/11/05 05:49:15;;;;;;;9.50;8.43;;;;;;;9.74;95.28;100440.69;6303455;22;20019;-74
2021/11/05 05:51:41;;;;;;;5.90;5.57;;;;;;;9.78;95.01;100450.09;6301211;22;20026;-75
2021/11/05 05:54:07;;;;;;;14.15;9.70;;;;;;;9.79;95.01;100451.75;6276404;22;20023;-76
2021/11/05 05:56:33;;;;;;;25.73;10.60;;;;;;;9.81;94.99;100449.97;6299903;22;20022;-76
2021/11/05 05:59:00;;;;;;;8.25;5.85;;;;;;;9.81;94.14;100444.75;6298639;22;20451;-74
2021/11/05 06:01:26;;;;;;;8.13;5.40;;;;;;;9.82;93.77;100454.25;6298959;22;20370;-75
2021/11/05 06:03:52;;;;;;;6.88;6.30;;;;;;;9.80;94.52;100450.88;6299455;22;20094;-76
2021/11/05 06:06:18;;;;;;;14.60;9.15;;;;;;;9.81;94.51;100449.97;6303498;22;20019;-74
2021/11/05 06:08:44;;;;;;;10.05;8.60;;;;;;;9.82;93.49;100436.84;6275480;22;20047;-73
2021/11/05 06:27:32;;;;;;;10.52;6.03;;;;;;;9.88;91.24;100433.16;6300622;22;20128;-73
2021/11/05 06:29:58;;;;;;;9.35;6.53;;;;;;;9.90;92.13;100413.06;6299646;22;20068;-74
2021/11/05 06:32:25;;;;;;;6.35;4.65;;;;;;;9.91;91.05;100457.31;6269025;22;20416;-71
2021/11/05 06:34:51;;;;;;;6.30;5.85;;;;;;;9.90;91.58;100467.81;6300445;22;20019;-72
2021/11/05 06:37:17;;;;;;;14.45;8.38;;;;;;;9.93;91.56;100462.47;6298554;22;20011;-72
2021/11/05 06:39:43;;;;;;;8.45;7.82;;;;;;;9.95;91.46;100469.31;6297538;22;20518;-72
2021/11/05 06:42:11;;;;;;;9.45;5.80;;;;;;;9.98;90.84;100468.31;6300976;22;20018;-72
2021/11/05 06:44:36;;;;;;;9.38;7.35;;;;;;;10.03;90.57;100434.22;6299894;22;20068;-73
2021/11/05 06:47:02;;;;;;;7.88;6.47;;;;;;;10.08;89.90;100447.94;6299961;22;20027;-71
2021/11/05 06:49:29;;;;;;;7.10;6.63;;;;;;;10.12;89.78;100449.47;6301780;22;20386;-72
2021/11/05 06:51:55;;;;;;;5.32;4.88;;;;;;;10.10;88.96;100435.66;6301380;22;20141;-73
2021/11/05 06:54:22;;;;;;;8.60;6.63;;;;;;;10.13;88.49;100425.09;6301805;22;20362;-70
2021/11/05 06:56:48;;;;;;;15.15;5.72;;;;;;;10.11;88.19;100424.31;6300389;22;20015;-70
2021/11/05 06:59:14;;;;;;;9.43;6.93;;;;;;;10.14;89.12;100419.84;6299967;22;20189;-72
2021/11/05 07:01:40;;;;;;;25.55;7.65;;;;;;;10.10;88.70;100431.31;6301612;22;20051;-72
2021/11/05 07:04:07;;;;;;;14.43;7.93;;;;;;;10.13;88.46;100430.31;6300069;22;20023;-74
2021/11/05 07:06:33;;;;;;;7.32;6.10;;;;;;;10.11;89.00;100427.75;6301697;22;20026;-73
2021/11/05 07:08:59;;;;;;;14.52;7.90;;;;;;;10.10;88.71;100426.09;6301801;22;20019;-71
2021/11/05 07:11:25;;;;;;;6.90;6.30;;;;;;;10.09;89.53;100439.19;6300034;22;20030;-72
2021/11/05 07:13:51;;;;;;;14.82;8.43;;;;;;;10.09;89.72;100427.00;6301919;22;20015;-73
2021/11/05 07:16:17;;;;;;;15.63;10.05;;;;;;;10.12;89.48;100410.34;6300726;22;20026;-72
2021/11/05 07:18:43;;;;;;;7.00;6.38;;;;;;;10.10;89.35;100420.00;6275926;22;20015;-71
2021/11/05 07:21:11;;;;;;;7.35;6.65;;;;;;;10.11;88.76;100409.50;6301993;22;20011;-72
2021/11/05 07:23:37;;;;;;;7.30;5.05;;;;;;;10.15;89.77;100412.84;6302179;22;20069;-72
2021/11/05 07:26:09;;;;;;;14.70;10.93;;;;;;;10.20;88.12;100405.69;6299867;22;20399;-73
2021/11/05 07:28:35;;;;;;;14.75;7.13;;;;;;;10.22;88.52;100393.41;6299687;22;20019;-70
2021/11/05 07:31:02;;;;;;;5.93;4.90;;;;;;;10.21;88.41;100404.78;6301381;22;20019;-71
2021/11/05 07:33:29;;;;;;;17.70;12.43;;;;;;;10.20;88.58;100406.53;6301316;22;20446;-71
2021/11/05 07:35:56;;;;;;;11.45;8.13;;;;;;;10.24;87.54;100376.75;6301281;22;20019;-72
2021/11/05 07:38:22;;;;;;;10.55;4.85;;;;;;;10.21;88.12;100370.88;6301708;22;20602;-71
2021/11/05 07:40:48;;;;;;;12.25;8.95;;;;;;;10.24;88.22;100383.75;6301647;22;20015;-70
2021/11/05 07:43:15;;;;;;;16.13;10.20;;;;;;;10.26;87.64;100376.69;6301640;22;20011;-70
2021/11/05 07:45:41;;;;;;;18.10;10.25;;;;;;;10.30;87.65;100371.28;6301986;22;20021;-71
2021/11/05 07:48:07;;;;;;;11.75;7.72;;;;;;;10.34;87.00;100380.66;6301491;22;20104;-72
2021/11/05 07:50:34;;;;;;;10.05;6.28;;;;;;;10.37;86.52;100375.28;6301906;22;20440;-71
2021/11/05 07:53:01;;;;;;;8.23;6.55;;;;;;;10.39;86.21;100360.44;6301869;22;20053;-72
2021/11/05 07:55:29;;;;;;;11.02;7.30;;;;;;;10.40;86.10;100366.50;6301358;22;20393;-72
2021/11/05 07:57:55;;;;;;;7.20;6.50;;;;;;;10.43;85.41;100367.19;6301210;22;20355;-74
2021/11/05 08:00:21;;;;;;;16.95;8.80;;;;;;;10.42;85.47;100360.28;6301509;22;20019;-73
2021/11/05 08:02:47;;;;;;;9.35;7.82;;;;;;;10.45;85.46;100349.69;6301223;22;20098;-73
2021/11/05 08:05:13;;;;;;;12.35;7.97;;;;;;;10.47;85.81;100351.41;6299449;22;20068;-74
2021/11/05 08:07:41;;;;;;;11.80;5.97;;;;;;;10.50;84.48;100341.66;6299697;22;20046;-71
2021/11/05 08:10:07;;;;;;;10.68;8.43;;;;;;;10.53;84.86;100351.09;6300936;22;20019;-72
2021/11/05 08:12:34;;;;;;;13.93;6.93;;;;;;;10.54;84.78;100352.78;6301442;22;20014;-72
2021/11/05 08:15:00;;;;;;;9.13;7.65;;;;;;;10.53;84.84;100338.91;6298901;22;20026;-74
2021/11/05 08:17:26;;;;;;;10.63;6.85;;;;;;;10.50;85.31;100351.25;6298746;22;20831;-73
2021/11/05 08:19:52;;;;;;;9.32;5.68;;;;;;;10.54;84.14;100348.41;6302703;22;20027;-73
2021/11/05 08:22:19;;;;;;;6.30;5.78;;;;;;;10.52;84.55;100328.53;6300321;22;20026;-74
2021/11/05 08:24:46;;;;;;;7.05;6.40;;;;;;;10.53;84.77;100335.44;6299039;22;20039;-73
2021/11/05 08:27:13;;;;;;;7.10;6.50;;;;;;;10.51;84.82;100338.09;6301112;22;20019;-72
2021/11/05 08:29:39;;;;;;;7.43;5.47;;;;;;;10.51;84.89;100337.25;6272922;22;20074;-73
2021/11/05 08:32:05;;;;;;;12.10;7.10;;;;;;;10.51;83.85;100339.88;6297413;22;20551;-73
2021/11/05 08:34:31;;;;;;;8.65;6.80;;;;;;;10.52;84.57;100336.34;6300173;22;20041;-75
2021/11/05 08:36:58;;;;;;;7.43;6.65;;;;;;;10.51;84.66;100321.59;6298287;22;20350;-75
2021/11/05 08:39:24;;;;;;;6.35;5.80;;;;;;;10.51;84.07;100313.75;6300272;22;20015;-74
2021/11/05 08:41:50;;;;;;;6.78;5.63;;;;;;;10.53;84.08;100325.00;6298712;22;20496;-73
2021/11/05 08:44:16;;;;;;;10.15;8.95;;;;;;;10.55;84.19;100320.53;6300619;22;20023;-73
2021/11/05 08:46:44;;;;;;;14.30;9.13;;;;;;;10.57;83.51;100334.38;6300296;22;20023;-73
2021/11/05 08:49:15;;;;;;;19.42;9.90;;;;;;;10.54;83.83;100308.41;6299718;22;20019;-73
2021/11/05 08:51:44;;;;;;;8.40;7.18;;;;;;;10.58;83.55;100323.00;6300252;22;20019;-72
2021/11/05 08:54:10;;;;;;;6.05;5.20;;;;;;;10.57;83.04;100316.94;6303168;22;20019;-73
2021/11/05 08:56:36;;;;;;;15.57;7.68;;;;;;;10.56;83.71;100314.41;6302597;22;20405;-74
2021/11/05 08:59:03;;;;;;;3.97;3.67;;;;;;;10.57;82.53;100290.00;6302166;22;20414;-72
2021/11/05 09:01:29;;;;;;;12.40;8.60;;;;;;;10.59;82.94;100298.59;6301535;22;20018;-73
2021/11/05 09:03:55;;;;;;;5.35;4.50;;;;;;;10.60;82.31;100287.25;6303073;22;20098;-73
2021/11/05 09:06:21;;;;;;;18.92;9.98;;;;;;;10.59;82.17;100285.53;6301599;22;20094;-72
2021/11/05 09:08:49;;;;;;;9.32;7.60;;;;;;;10.63;82.09;100284.50;6302761;22;20023;-73
2021/11/05 09:11:15;;;;;;;13.13;7.30;;;;;;;10.64;82.36;100312.25;6302992;22;20053;-73
2021/11/05 09:13:41;;;;;;;11.70;8.38;;;;;;;10.63;82.11;100310.59;6303275;22;20019;-73
2021/11/05 09:16:07;;;;;;;5.60;5.07;;;;;;;10.60;82.17;100300.31;6300697;22;20015;-73
2021/11/05 09:18:33;;;;;;;9.73;5.22;;;;;;;10.61;82.41;100309.81;6302706;22;20038;-73
2021/11/05 09:21:00;;;;;;;9.85;4.25;;;;;;;10.58;81.70;100292.53;6302868;22;20336;-72
2021/11/05 09:23:27;;;;;;;8.48;5.25;;;;;;;10.63;82.19;100294.94;6301375;22;20042;-74
2021/11/05 09:25:54;;;;;;;14.02;8.85;;;;;;;10.62;82.40;100293.22;6302375;22;20026;-72
2021/11/05 09:28:20;;;;;;;6.78;5.65;;;;;;;10.66;81.28;100284.34;6302792;22;20019;-73
2021/11/05 09:30:46;;;;;;;8.07;6.13;;;;;;;10.69;81.17;100278.97;6302688;22;20120;-71
2021/11/05 09:33:12;;;;;;;5.82;4.30;;;;;;;10.73;81.71;100290.97;6302429;22;20426;-72
2021/11/05 09:35:38;;;;;;;11.20;9.43;;;;;;;10.71;81.97;100269.28;6301363;22;20023;-73
2021/11/05 09:38:05;;;;;;;6.95;6.32;;;;;;;10.71;81.39;100277.97;6302740;22;20023;-73
2021/11/05 09:40:31;;;;;;;6.60;6.10;;;;;;;10.72;81.52;100270.97;6302758;22;20015;-73
2021/11/05 09:42:58;;;;;;;7.88;6.57;;;;;;;10.75;81.39;100268.22;6302608;22;20037;-74
2021/11/05 09:45:25;;;;;;;11.20;6.15;;;;;;;10.79;80.83;100234.06;6302689;22;20454;-73
2021/11/05 09:47:52;;;;;;;12.20;7.20;;;;;;;10.81;80.83;100254.84;6275027;22;20015;-73
2021/11/05 09:50:21;;;;;;;7.93;4.95;;;;;;;10.79;81.34;100254.94;6302906;22;20076;-73
2021/11/05 09:52:47;;;;;;;9.63;7.03;;;;;;;10.79;81.41;100264.53;6300899;22;20015;-73
2021/11/05 09:55:15;;;;;;;7.18;6.57;;;;;;;10.78;81.75;100262.84;6302989;22;20019;-74
2021/11/05 09:57:41;;;;;;;11.10;7.30;;;;;;;10.83;80.92;100259.06;6301149;22;20046;-72
2021/11/05 10:00:09;;;;;;;7.65;6.15;;;;;;;10.81;81.00;100252.25;6301005;22;20019;-72
2021/11/05 10:02:41;;;;;;;7.70;5.82;;;;;;;10.80;81.74;100256.63;6300865;22;20408;-72
2021/11/05 10:05:07;;;;;;;6.63;5.13;;;;;;;10.82;81.83;100253.94;6249856;22;20111;-72
2021/11/05 10:07:47;;;;;;;6.15;5.75;;;;;;;10.80;81.97;100246.16;6302491;22;20288;-73
2021/11/05 10:10:13;;;;;;;11.13;8.35;;;;;;;10.80;82.28;100234.88;6301353;22;20041;-73
2021/11/05 10:12:52;;;;;;;9.20;7.75;;;;;;;10.83;81.93;100234.75;6300756;22;20477;-71
2021/11/05 10:15:19;;;;;;;10.13;8.68;;;;;;;10.86;81.81;100226.75;6302977;22;20054;-71
2021/11/05 10:17:44;;;;;;;4.85;4.50;;;;;;;10.83;82.54;100221.69;6300941;22;20019;-74
2021/11/05 10:20:11;;;;;;;5.68;5.38;;;;;;;10.84;82.98;100225.97;6301445;22;20019;-73
2021/11/05 10:22:49;;;;;;;6.15;5.72;;;;;;;10.86;82.25;100208.47;6302575;22;20402;-73
2021/11/05 10:25:32;;;;;;;9.02;6.88;;;;;;;10.90;82.37;100207.38;6302608;22;20393;-72
2021/11/05 10:28:00;;;;;;;5.50;5.13;;;;;;;10.90;82.75;100209.97;6302753;22;20023;-72
2021/11/05 10:30:27;;;;;;;7.97;6.75;;;;;;;10.90;82.61;100195.16;6304188;22;20073;-72
2021/11/05 10:32:54;;;;;;;9.88;6.72;;;;;;;10.94;82.54;100201.94;6276408;22;20052;-71
2021/11/05 10:35:22;;;;;;;10.93;7.50;;;;;;;10.93;82.25;100194.16;6304143;22;20401;-71
2021/11/05 10:37:51;;;;;;;10.63;5.75;;;;;;;10.95;82.23;100197.56;6302369;22;20027;-72
2021/11/05 10:40:17;;;;;;;9.18;7.20;;;;;;;10.97;82.62;100190.47;6303402;22;20022;-72
2021/11/05 10:42:46;;;;;;;18.17;8.07;;;;;;;10.97;83.18;100180.88;6278013;22;20023;-72
2021/11/05 10:45:22;;;;;;;12.38;6.53;;;;;;;10.98;82.49;100166.91;6305536;22;20020;-72
2021/11/05 10:47:54;;;;;;;17.70;5.82;;;;;;;11.02;82.65;100174.56;6304720;22;20023;-72
2021/11/05 10:50:27;;;;;;;19.13;9.57;;;;;;;11.05;82.30;100151.75;6305306;22;20103;-72
2021/11/05 10:53:13;;;;;;;5.43;5.07;;;;;;;11.07;82.50;100154.25;6302402;22;20046;-73
2021/11/05 10:55:43;;;;;;;10.77;6.22;;;;;;;11.07;82.49;100139.44;6304433;22;20015;-74
2021/11/05 10:58:19;;;;;;;6.10;4.50;;;;;;;11.11;82.46;100146.19;6304810;22;20026;-73
2021/11/05 11:00:46;;;;;;;8.07;6.13;;;;;;;11.11;82.56;100140.13;6278040;22;20015;-72
2021/11/05 11:03:14;;;;;;;10.10;5.25;;;;;;;11.10;82.67;100127.97;6302530;22;20041;-72
2021/11/05 11:05:43;;;;;;;6.82;5.57;;;;;;;11.16;82.19;100138.94;6302417;22;20019;-72
2021/11/05 11:08:29;;;;;;;6.75;5.60;;;;;;;11.15;82.76;100132.06;6303877;22;20015;-73
2021/11/05 11:11:14;;;;;;;8.30;5.88;;;;;;;11.17;82.40;100140.66;6302661;22;20019;-72
2021/11/05 11:13:40;;;;;;;12.88;4.75;;;;;;;11.15;82.74;100142.50;6303882;22;20021;-73
2021/11/05 11:16:19;;;;;;;15.77;9.02;;;;;;;11.12;83.05;100139.22;6302294;22;20019;-74
2021/11/05 11:18:52;;;;;;;10.65;6.57;;;;;;;11.16;82.77;100141.56;6302235;22;20100;-73
2021/11/05 11:21:19;;;;;;;7.57;4.65;;;;;;;11.19;82.84;100137.97;6304228;22;20454;-73
2021/11/05 11:23:45;;;;;;;10.00;7.15;;;;;;;11.24;82.69;100142.03;6303745;22;20019;-74
2021/11/05 11:26:11;;;;;;;8.63;7.00;;;;;;;11.25;83.04;100125.41;6302574;22;20019;-74
2021/11/05 11:28:37;;;;;;;25.40;9.30;;;;;;;11.28;83.14;100130.47;6302458;22;20019;-74
2021/11/05 11:31:03;;;;;;;9.73;7.82;;;;;;;11.29;82.95;100126.06;6276311;22;20098;-73
2021/11/05 11:33:30;;;;;;;18.63;8.18;;;;;;;11.27;82.95;100128.78;6276517;22;20076;-74
2021/11/05 11:35:57;;;;;;;17.45;6.15;;;;;;;11.31;83.31;100121.63;6303831;22;20023;-73